Time;durP1;ratioP1;P1;durP2;ratioP2;P2;SDS_P1;SDS_P2;PMS_P1;PMS_P2;Temp;Humidity;BMP_temperature;BMP_pressure;BME280_temperature;BME280_humidity;BME280_pressure;Samples;Min_cycle;Max_cycle;Signal;HPM_P1;HPM_P2
2022/05/18 00:01:39;;;;;;;13.30;10.52;;;537.60;2406.40;;;;;;5075019;28;20536;-83
2022/05/18 00:04:06;;;;;;;14.70;9.80;;;512.90;2380.80;;;;;;5073479;28;20423;-84
2022/05/18 00:06:32;;;;;;;13.07;9.77;;;512.90;2380.80;;;;;;5073706;28;20027;-82
2022/05/18 00:08:57;;;;;;;12.70;9.18;;;512.90;2380.80;;;;;;5074472;28;20024;-83
2022/05/18 00:11:23;;;;;;;12.82;9.07;;;537.60;2406.40;;;;;;5073648;28;20823;-83
2022/05/18 00:13:52;;;;;;;11.82;10.23;;;537.70;2406.40;;;;;;5074125;28;20028;-84
2022/05/18 00:16:20;;;;;;;13.75;8.65;;;537.70;2406.40;;;;;;5088974;28;20032;-84
2022/05/18 00:18:46;;;;;;;9.80;7.68;;;537.70;2406.40;;;;;;5094588;28;20028;-82
2022/05/18 00:21:13;;;;;;;11.75;7.78;;;537.80;2406.40;;;;;;5093117;28;20388;-83
2022/05/18 00:23:38;;;;;;;10.27;7.65;;;537.70;2406.40;;;;;;5093542;28;20020;-83
2022/05/18 00:26:06;;;;;;;9.15;7.20;;;537.70;2406.40;;;;;;5093298;28;20165;-85
2022/05/18 00:28:33;;;;;;;12.30;7.82;;;537.70;2406.40;;;;;;5094726;28;20134;-83
2022/05/18 00:30:59;;;;;;;8.38;6.85;;;537.70;2406.40;;;;;;5093497;28;20020;-83
2022/05/18 00:33:25;;;;;;;10.38;7.05;;;537.70;2406.40;;;;;;5093199;28;20035;-83
2022/05/18 00:35:51;;;;;;;12.63;7.47;;;537.70;2406.40;;;;;;5093202;28;20023;-84
2022/05/18 00:38:17;;;;;;;10.95;6.78;;;512.90;2380.80;;;;;;5094426;28;20491;-84
2022/05/18 00:40:46;;;;;;;9.98;6.57;;;537.60;2406.40;;;;;;5086411;28;20020;-83
2022/05/18 00:43:38;;;;;;;8.85;5.78;;;512.90;2380.80;;;;;;5073638;28;20025;-84
2022/05/18 00:46:06;;;;;;;9.40;6.35;;;512.90;2380.80;;;;;;5073134;28;20048;-83
2022/05/18 00:48:32;;;;;;;9.95;6.35;;;512.90;2380.80;;;;;;5088772;28;20024;-86
2022/05/18 00:51:04;;;;;;;10.60;6.22;;;512.80;2380.80;;;;;;5094112;28;20103;-84
2022/05/18 00:53:36;;;;;;;10.48;7.03;;;512.70;2380.80;;;;;;5093206;28;20032;-84
2022/05/18 00:56:06;;;;;;;10.77;6.43;;;512.60;2380.80;;;;;;5091916;28;20036;-83
2022/05/18 00:58:38;;;;;;;7.22;6.05;;;512.30;2380.80;;;;;;5092647;28;20024;-84
2022/05/18 01:01:04;;;;;;;11.68;7.18;;;512.40;2380.80;;;;;;5093846;28;20020;-83
2022/05/18 01:03:41;;;;;;;8.70;6.60;;;512.30;2380.80;;;;;;5092924;28;20505;-85
2022/05/18 01:06:16;;;;;;;8.65;6.72;;;512.10;2380.80;;;;;;5092604;28;20434;-83
2022/05/18 01:09:01;;;;;;;14.20;7.07;;;512.20;2380.80;;;;;;5086465;28;20020;-85
2022/05/18 01:11:27;;;;;;;11.40;6.70;;;512.00;2380.80;;;;;;5071916;28;20040;-83
2022/05/18 01:13:53;;;;;;;12.57;7.35;;;487.30;2380.80;;;;;;5072337;28;20040;-84
2022/05/18 01:16:20;;;;;;;7.93;6.35;;;512.00;2380.80;;;;;;5071998;28;20798;-83
2022/05/18 01:18:47;;;;;;;10.77;6.63;;;512.00;2380.80;;;;;;5072068;28;20028;-84
2022/05/18 01:21:13;;;;;;;11.85;6.53;;;487.30;2380.80;;;;;;5073089;28;20033;-83
2022/05/18 01:24:14;;;;;;;11.38;7.07;;;512.10;2380.80;;;;;;5072169;28;20054;-83
2022/05/18 01:26:44;;;;;;;12.73;7.15;;;512.00;2380.80;;;;;;5073466;28;20032;-82
2022/05/18 01:29:10;;;;;;;11.48;7.07;;;487.30;2380.80;;;;;;5071379;28;20036;-83
2022/05/18 01:31:50;;;;;;;12.90;7.00;;;487.30;2380.80;;;;;;5073405;28;20098;-85
2022/05/18 01:34:22;;;;;;;10.88;7.25;;;487.20;2380.80;;;;;;5070716;28;20068;-83
2022/05/18 01:36:48;;;;;;;10.70;6.60;;;487.20;2380.80;;;;;;5073092;28;20102;-82
2022/05/18 01:39:38;;;;;;;10.80;6.10;;;487.30;2380.80;;;;;;5073324;28;20527;-83
2022/05/18 01:42:16;;;;;;;14.85;6.70;;;487.30;2380.80;;;;;;5073322;28;20043;-82
2022/05/18 01:44:41;;;;;;;9.02;6.15;;;487.30;2380.80;;;;;;5072043;28;20025;-86
2022/05/18 01:47:08;;;;;;;12.45;6.90;;;487.30;2380.80;;;;;;5091324;28;20036;-82
2022/05/18 01:49:38;;;;;;;10.70;6.80;;;487.20;2380.80;;;;;;5092393;28;20029;-83
2022/05/18 01:52:05;;;;;;;12.75;8.70;;;487.30;2380.80;;;;;;5087151;28;20024;-82
2022/05/18 01:54:43;;;;;;;13.50;7.32;;;487.10;2380.80;;;;;;5082311;28;20042;-83
2022/05/18 01:57:09;;;;;;;14.77;8.10;;;487.10;2380.80;;;;;;5082040;28;20025;-82
2022/05/18 01:59:35;;;;;;;15.82;8.50;;;487.00;2380.80;;;;;;5084113;28;20039;-85
2022/05/18 02:02:02;;;;;;;15.68;9.00;;;486.80;2380.80;;;;;;5071733;28;20379;-85
2022/05/18 02:04:31;;;;;;;19.65;9.18;;;486.70;2380.80;;;;;;5072014;28;20115;-87
2022/05/18 02:06:59;;;;;;;15.52;9.60;;;486.70;2380.80;;;;;;5079231;28;20081;-85
2022/05/18 02:09:25;;;;;;;14.88;7.90;;;486.80;2380.80;;;;;;5096415;28;20024;-86
2022/05/18 02:11:52;;;;;;;11.52;7.47;;;486.80;2380.80;;;;;;5096117;28;20027;-88
2022/05/18 02:14:18;;;;;;;10.85;7.30;;;486.70;2380.80;;;;;;5096032;28;20484;-88
2022/05/18 02:16:44;;;;;;;9.80;7.05;;;487.10;2380.80;;;;;;5094587;28;20028;-89
2022/05/18 02:19:10;;;;;;;11.85;7.18;;;486.80;2380.80;;;;;;5085357;28;20115;-90
2022/05/18 02:21:35;;;;;;;10.45;7.57;;;486.80;2380.80;;;;;;5096691;28;20020;-89
2022/05/18 02:24:01;;;;;;;10.65;7.13;;;486.70;2380.80;;;;;;5095490;28;20032;-87
2022/05/18 02:26:27;;;;;;;10.02;7.30;;;486.60;2380.80;;;;;;5095748;28;20537;-89
2022/05/18 02:28:53;;;;;;;11.73;7.80;;;486.70;2380.80;;;;;;5096873;28;20024;-87
2022/05/18 02:31:19;;;;;;;8.52;7.00;;;486.70;2380.80;;;;;;5095851;28;20479;-87
2022/05/18 02:33:45;;;;;;;11.48;7.63;;;486.70;2380.80;;;;;;5084447;28;20090;-88
2022/05/18 02:36:12;;;;;;;10.15;7.18;;;486.50;2380.80;;;;;;5077084;28;20552;-85
2022/05/18 02:38:39;;;;;;;10.82;7.07;;;486.50;2380.80;;;;;;5095892;28;20480;-87
2022/05/18 02:41:05;;;;;;;11.68;7.40;;;486.60;2380.80;;;;;;5097085;28;20027;-89
2022/05/18 02:43:31;;;;;;;11.05;7.60;;;461.70;2380.80;;;;;;5095292;28;20058;-89
2022/05/18 02:46:06;;;;;;;11.65;7.55;;;486.60;2380.80;;;;;;5095517;28;20021;-87
2022/05/18 02:48:32;;;;;;;12.60;8.18;;;486.40;2380.80;;;;;;5079879;28;20039;-88
2022/05/18 02:50:57;;;;;;;16.58;7.90;;;486.40;2380.80;;;;;;5075299;28;20226;-89
2022/05/18 02:53:23;;;;;;;16.77;8.73;;;486.40;2380.80;;;;;;5075040;28;20033;-88
2022/05/18 02:56:07;;;;;;;11.60;8.25;;;486.40;2380.80;;;;;;5074810;28;20058;-89
2022/05/18 02:58:42;;;;;;;13.15;7.65;;;461.70;2380.80;;;;;;5075697;28;20561;-88
2022/05/18 03:01:13;;;;;;;14.95;8.00;;;461.50;2380.80;;;;;;5087000;28;20040;-88
2022/05/18 03:03:40;;;;;;;13.77;8.63;;;461.70;2380.80;;;;;;5084392;28;20039;-89
2022/05/18 03:06:09;;;;;;;10.98;8.20;;;461.70;2380.80;;;;;;5095082;28;20413;-88
2022/05/18 03:08:38;;;;;;;11.95;7.60;;;461.60;2380.80;;;;;;5090359;28;20056;-88
2022/05/18 03:11:04;;;;;;;10.15;6.63;;;461.50;2380.80;;;;;;5082990;28;20113;-87
2022/05/18 03:13:31;;;;;;;10.43;6.75;;;461.50;2380.80;;;;;;5094868;28;20407;-90
2022/05/18 03:15:57;;;;;;;15.80;5.93;;;461.40;2380.80;;;;;;5094677;28;20024;-89
2022/05/18 03:18:23;;;;;;;10.35;6.47;;;461.50;2380.80;;;;;;5082564;28;20036;-86
2022/05/18 03:23:33;;;;;;;10.30;6.43;;;461.40;2380.80;;;;;;5080998;28;20515;-84
2022/05/18 03:26:06;;;;;;;12.18;5.93;;;461.50;2380.80;;;;;;5088454;28;20024;-87
2022/05/18 03:28:32;;;;;;;12.32;6.53;;;461.50;2380.80;;;;;;5086954;28;20511;-88
2022/05/18 03:30:58;;;;;;;6.70;4.97;;;461.40;2380.80;;;;;;5074854;28;20036;-85
2022/05/18 03:33:24;;;;;;;13.82;5.95;;;461.50;2380.80;;;;;;5082435;28;20476;-89
2022/05/18 03:35:51;;;;;;;9.40;5.75;;;461.50;2380.80;;;;;;5095255;28;20032;-89
2022/05/18 03:38:21;;;;;;;11.88;5.47;;;461.50;2380.80;;;;;;5094700;28;20031;-89
2022/05/18 03:40:47;;;;;;;8.02;4.82;;;461.40;2380.80;;;;;;5095956;28;20176;-89
2022/05/18 03:43:13;;;;;;;10.30;4.68;;;461.40;2380.80;;;;;;5092951;28;20020;-87
2022/05/18 03:45:39;;;;;;;10.52;5.60;;;461.40;2380.80;;;;;;5084924;28;20141;-89
2022/05/18 03:48:06;;;;;;;8.05;4.55;;;461.40;2380.80;;;;;;5084115;28;20468;-88
2022/05/18 03:50:32;;;;;;;8.25;4.18;;;461.40;2380.80;;;;;;5084285;28;20036;-89
2022/05/18 03:52:59;;;;;;;9.55;4.68;;;461.30;2380.80;;;;;;5079135;28;20042;-89
2022/05/18 03:55:25;;;;;;;9.02;4.43;;;461.20;2380.80;;;;;;5093223;28;20051;-86
2022/05/18 03:57:52;;;;;;;8.75;4.45;;;461.20;2380.80;;;;;;5073738;28;20029;-88
2022/05/18 04:00:18;;;;;;;7.65;4.40;;;461.40;2380.80;;;;;;5088598;28;20082;-87
2022/05/18 04:02:47;;;;;;;7.25;4.53;;;461.40;2380.80;;;;;;5094316;28;20032;-88
2022/05/18 04:05:18;;;;;;;10.35;4.50;;;461.20;2380.80;;;;;;5075729;28;20115;-88
2022/05/18 04:07:44;;;;;;;7.18;3.67;;;461.20;2380.80;;;;;;5088006;28;20064;-90
2022/05/18 04:10:10;;;;;;;5.45;3.53;;;461.30;2380.80;;;;;;5094594;28;20031;-88
2022/05/18 04:12:36;;;;;;;12.50;3.90;;;461.40;2380.80;;;;;;5093697;28;20030;-88
2022/05/18 04:15:03;;;;;;;8.18;4.07;;;461.40;2380.80;;;;;;5093772;28;20372;-88
2022/05/18 04:17:29;;;;;;;7.68;3.63;;;461.40;2380.80;;;;;;5093795;28;20026;-86
2022/05/18 04:19:55;;;;;;;6.35;3.45;;;461.40;2380.80;;;;;;5093978;28;20380;-87
2022/05/18 04:22:23;;;;;;;8.70;3.50;;;461.40;2380.80;;;;;;5093381;28;20031;-83
2022/05/18 04:24:50;;;;;;;5.13;3.65;;;461.50;2380.80;;;;;;5093563;28;20085;-84
2022/05/18 04:27:16;;;;;;;6.47;3.63;;;461.50;2380.80;;;;;;5081215;28;20029;-82
2022/05/18 04:29:41;;;;;;;10.77;3.83;;;461.60;2380.80;;;;;;5086540;28;20047;-80
2022/05/18 04:32:07;;;;;;;9.05;3.75;;;461.70;2380.80;;;;;;5079449;28;20029;-81
2022/05/18 04:34:33;;;;;;;5.88;3.63;;;461.70;2380.80;;;;;;5071544;28;20044;-81
2022/05/18 04:36:59;;;;;;;6.95;3.50;;;461.70;2380.80;;;;;;5073343;28;20028;-81
2022/05/18 04:39:24;;;;;;;7.28;3.72;;;461.70;2380.80;;;;;;5077692;28;20039;-81
2022/05/18 04:41:50;;;;;;;8.50;2.78;;;486.40;2380.80;;;;;;5093712;28;20106;-80
2022/05/18 04:44:16;;;;;;;5.32;3.13;;;486.40;2380.80;;;;;;5091696;28;20039;-82
2022/05/18 04:46:42;;;;;;;5.60;3.20;;;461.70;2380.80;;;;;;5092439;28;20471;-81
2022/05/18 04:49:10;;;;;;;6.63;3.15;;;486.40;2380.80;;;;;;5093465;28;20082;-79
2022/05/18 04:51:36;;;;;;;5.80;2.50;;;486.40;2380.80;;;;;;5093631;28;20578;-80
2022/05/18 04:54:01;;;;;;;7.72;2.70;;;486.40;2380.80;;;;;;5092777;28;20040;-80
2022/05/18 04:56:27;;;;;;;8.88;3.60;;;486.40;2355.20;;;;;;5084921;28;20075;-78
2022/05/18 04:58:53;;;;;;;8.00;3.08;;;486.40;2304.00;;;;;;5080132;28;20588;-79
2022/05/18 05:01:19;;;;;;;4.88;2.60;;;461.70;2252.80;;;;;;5081550;28;20069;-80
2022/05/18 05:03:46;;;;;;;5.78;2.80;;;461.70;2304.00;;;;;;5079996;28;20115;-79
2022/05/18 05:06:12;;;;;;;8.80;3.83;;;461.70;2201.60;;;;;;5081909;28;20021;-82
2022/05/18 05:08:38;;;;;;;6.32;2.53;;;486.50;2252.80;;;;;;5083741;28;20024;-83
2022/05/18 05:11:06;;;;;;;5.25;3.00;;;461.70;2227.20;;;;;;5081117;28;20027;-84
2022/05/18 05:13:32;;;;;;;5.60;2.53;;;486.50;2150.40;;;;;;5080268;28;20487;-83
2022/05/18 05:16:04;;;;;;;11.50;3.15;;;486.50;2176.00;;;;;;5081580;28;20051;-84
2022/05/18 05:18:31;;;;;;;10.10;3.10;;;486.50;2150.40;;;;;;5074798;28;20027;-82
2022/05/18 05:20:56;;;;;;;10.25;2.60;;;486.50;2099.20;;;;;;5072431;28;20021;-84
2022/05/18 05:23:24;;;;;;;3.92;2.17;;;486.50;2073.60;;;;;;5072497;28;20029;-83
2022/05/18 05:25:50;;;;;;;5.30;2.50;;;486.60;2073.60;;;;;;5072213;28;20032;-82
2022/05/18 05:28:16;;;;;;;5.22;2.53;;;486.50;1996.80;;;;;;5072331;28;20082;-83
2022/05/18 05:30:42;;;;;;;5.15;2.25;;;486.60;2048.00;;;;;;5072376;28;20032;-84
2022/05/18 05:33:07;;;;;;;11.63;3.40;;;486.50;1996.80;;;;;;5072143;28;20060;-84
2022/05/18 05:35:34;;;;;;;9.13;3.00;;;486.60;1945.60;;;;;;5078671;28;20526;-83
2022/05/18 05:37:59;;;;;;;9.50;2.83;;;486.60;1894.40;;;;;;5080587;28;20066;-81
2022/05/18 05:40:25;;;;;;;6.22;2.67;;;486.50;1894.40;;;;;;5081999;28;20016;-81
2022/05/18 05:42:51;;;;;;;7.25;2.20;;;486.60;1843.20;;;;;;5088791;28;20488;-81
2022/05/18 05:45:16;;;;;;;7.43;2.67;;;486.60;1792.00;;;;;;5088490;28;20453;-79
2022/05/18 05:47:42;;;;;;;7.28;2.28;;;486.50;1740.80;;;;;;5080427;28;20110;-82
2022/05/18 05:50:08;;;;;;;6.60;1.98;;;486.50;1740.80;;;;;;5081250;28;20024;-79
2022/05/18 05:52:35;;;;;;;8.00;2.70;;;486.80;1740.80;;;;;;5079743;28;20016;-79
2022/05/18 05:55:00;;;;;;;8.68;2.42;;;486.70;1689.60;;;;;;5081123;28;20044;-85
2022/05/18 05:57:26;;;;;;;9.38;2.85;;;486.70;1638.40;;;;;;5074514;28;20105;-84
2022/05/18 05:59:52;;;;;;;4.35;2.08;;;486.80;1638.40;;;;;;5071753;28;20036;-82
2022/05/18 06:02:19;;;;;;;13.45;1.90;;;486.80;1587.20;;;;;;5071959;28;20028;-81
2022/05/18 06:04:46;;;;;;;5.85;2.22;;;486.80;1587.20;;;;;;5071343;28;20354;-80
2022/05/18 06:07:13;;;;;;;10.90;2.00;;;486.80;1536.00;;;;;;5071640;28;20039;-80
2022/05/18 06:09:39;;;;;;;7.63;2.15;;;486.90;1561.60;;;;;;5071365;28;20029;-82
2022/05/18 06:12:06;;;;;;;7.30;1.92;;;487.00;1536.00;;;;;;5071342;28;20078;-80
2022/05/18 06:14:32;;;;;;;7.90;2.08;;;487.10;1536.00;;;;;;5071144;28;20060;-82
2022/05/18 06:16:58;;;;;;;7.45;2.22;;;487.20;1536.00;;;;;;5071114;28;20025;-82
2022/05/18 06:19:24;;;;;;;8.15;2.40;;;487.30;1484.80;;;;;;5071859;28;20388;-83
2022/05/18 06:21:50;;;;;;;12.52;2.17;;;487.30;1484.80;;;;;;5071648;28;20040;-83
2022/05/18 06:24:18;;;;;;;3.28;1.60;;;487.30;1459.20;;;;;;5071738;28;20029;-82
2022/05/18 06:26:44;;;;;;;9.50;2.10;;;487.30;1459.20;;;;;;5071260;28;20086;-81
2022/05/18 06:29:11;;;;;;;13.95;2.13;;;487.30;1408.00;;;;;;5071421;28;20071;-82
2022/05/18 06:31:36;;;;;;;11.45;1.92;;;512.00;1408.00;;;;;;5071062;28;20547;-81
2022/05/18 06:34:02;;;;;;;7.07;2.10;;;512.20;1408.00;;;;;;5070566;28;20139;-82
2022/05/18 06:36:30;;;;;;;16.00;2.55;;;512.20;1408.00;;;;;;5071057;28;20170;-82
2022/05/18 06:38:55;;;;;;;6.63;1.92;;;512.50;1433.60;;;;;;5071230;28;20035;-81
2022/05/18 06:41:21;;;;;;;8.68;2.10;;;512.40;1382.40;;;;;;5070798;28;20479;-80
2022/05/18 06:43:54;;;;;;;6.80;1.77;;;512.40;1356.80;;;;;;5071832;28;20029;-80
2022/05/18 06:46:21;;;;;;;11.15;1.90;;;512.40;1305.60;;;;;;5070968;28;20020;-80
2022/05/18 06:48:48;;;;;;;10.75;2.80;;;512.40;1305.60;;;;;;5070745;28;20119;-80
2022/05/18 06:51:22;;;;;;;9.32;2.08;;;512.30;1305.60;;;;;;5071241;28;20020;-81
2022/05/18 06:53:52;;;;;;;16.08;2.42;;;512.40;1331.20;;;;;;5073490;28;20115;-81
2022/05/18 06:56:22;;;;;;;15.25;3.05;;;512.40;1280.00;;;;;;5075302;28;20124;-81
2022/05/18 06:58:49;;;;;;;11.45;2.15;;;512.50;1254.40;;;;;;5074130;28;20035;-80
2022/05/18 07:01:15;;;;;;;11.25;2.17;;;512.70;1254.40;;;;;;5073950;28;20028;-80
2022/05/18 07:03:42;;;;;;;5.00;1.60;;;512.70;1228.80;;;;;;5075548;28;20021;-81
2022/05/18 07:06:08;;;;;;;6.82;1.50;;;512.80;1203.20;;;;;;5073943;28;20131;-81
2022/05/18 07:08:34;;;;;;;7.72;1.77;;;512.90;1228.80;;;;;;5074426;28;20115;-80
2022/05/18 07:11:00;;;;;;;19.23;2.10;;;512.90;1177.60;;;;;;5085986;28;20054;-81
2022/05/18 07:13:26;;;;;;;4.95;1.40;;;512.90;1126.40;;;;;;5094678;28;20499;-83
2022/05/18 07:15:51;;;;;;;9.93;2.08;;;512.90;1100.80;;;;;;5094108;28;20395;-80
2022/05/18 07:18:17;;;;;;;11.35;2.28;;;512.90;1126.40;;;;;;5095025;28;20365;-82
2022/05/18 07:20:43;;;;;;;11.75;1.65;;;537.60;1126.40;;;;;;5094401;28;20420;-81
2022/05/18 07:23:09;;;;;;;7.82;1.58;;;537.70;1126.40;;;;;;5091816;28;20020;-87
2022/05/18 07:25:35;;;;;;;5.78;2.30;;;537.80;1126.40;;;;;;5090792;28;20035;-81
2022/05/18 07:28:01;;;;;;;11.75;1.55;;;538.00;1126.40;;;;;;5085415;28;20396;-87
2022/05/18 07:30:27;;;;;;;7.15;1.65;;;538.00;1126.40;;;;;;5081844;28;20043;-83
2022/05/18 07:32:52;;;;;;;12.85;1.55;;;538.00;1152.00;;;;;;5084651;28;20398;-83
2022/05/18 07:35:18;;;;;;;7.05;1.80;;;538.10;1126.40;;;;;;5081145;28;20044;-82
2022/05/18 07:37:44;;;;;;;13.60;2.05;;;538.10;1100.80;;;;;;5082199;28;20112;-84
2022/05/18 07:40:11;;;;;;;7.72;1.77;;;538.30;1126.40;;;;;;5091997;28;20601;-83
2022/05/18 07:42:38;;;;;;;9.60;1.80;;;538.30;1100.80;;;;;;5093865;28;20082;-81
2022/05/18 07:45:06;;;;;;;19.77;2.22;;;538.30;1100.80;;;;;;5094441;28;20030;-83
2022/05/18 07:47:32;;;;;;;15.93;1.80;;;538.40;1100.80;;;;;;5100293;28;20124;-79
2022/05/18 07:49:58;;;;;;;9.73;2.00;;;538.40;1100.80;;;;;;5097957;28;20016;-82
2022/05/18 07:52:24;;;;;;;7.20;1.80;;;538.40;1100.80;;;;;;5088017;28;20028;-81
2022/05/18 07:54:51;;;;;;;6.40;2.08;;;538.40;1075.20;;;;;;5090568;28;20101;-83
2022/05/18 07:57:17;;;;;;;11.40;2.40;;;538.30;1075.20;;;;;;5094075;28;20107;-82
2022/05/18 07:59:44;;;;;;;8.93;1.90;;;538.30;1075.20;;;;;;5090319;28;20535;-83
2022/05/18 08:02:10;;;;;;;14.43;1.90;;;538.40;1075.20;;;;;;5085238;28;20070;-84
2022/05/18 08:04:36;;;;;;;17.27;2.00;;;538.30;1100.80;;;;;;5082726;28;20059;-81
2022/05/18 08:07:02;;;;;;;5.47;1.55;;;538.40;1100.80;;;;;;5085089;28;20481;-85
2022/05/18 08:09:28;;;;;;;31.45;2.90;;;538.40;1126.40;;;;;;5093764;28;20047;-86
2022/05/18 08:17:23;;;;;;;9.85;1.98;;;538.50;1126.40;;;;;;5078934;28;20051;-81
2022/05/18 08:19:48;;;;;;;9.55;1.83;;;538.50;1126.40;;;;;;5073573;28;20492;-85
2022/05/18 08:22:14;;;;;;;13.13;2.45;;;563.20;1152.00;;;;;;5073420;28;20032;-84
2022/05/18 08:24:40;;;;;;;7.30;1.95;;;538.50;1100.80;;;;;;5077798;28;20035;-83
2022/05/18 08:27:12;;;;;;;5.03;1.60;;;538.30;1075.20;;;;;;5084231;28;20028;-84
2022/05/18 08:29:37;;;;;;;10.88;1.52;;;538.50;1100.80;;;;;;5081210;28;20028;-88
2022/05/18 08:32:04;;;;;;;11.50;2.10;;;538.50;1100.80;;;;;;5083437;28;20017;-83
2022/05/18 08:34:30;;;;;;;5.70;1.85;;;538.40;1075.20;;;;;;5080940;28;20067;-83
2022/05/18 08:36:55;;;;;;;6.47;1.98;;;538.50;1075.20;;;;;;5077590;28;20464;-82
2022/05/18 08:39:21;;;;;;;4.97;1.35;;;563.20;1126.40;;;;;;5072684;28;20468;-83
2022/05/18 08:41:49;;;;;;;7.20;1.60;;;538.50;1075.20;;;;;;5072929;28;20055;-82
2022/05/18 08:44:32;;;;;;;7.40;1.80;;;538.50;1024.00;;;;;;5072883;28;20086;-83
2022/05/18 08:46:58;;;;;;;5.38;1.40;;;563.20;1075.20;;;;;;5072507;28;20024;-83
2022/05/18 08:49:46;;;;;;;10.93;2.03;;;538.40;1075.20;;;;;;5073688;28;20464;-83
2022/05/18 08:52:25;;;;;;;3.90;1.80;;;538.50;1075.20;;;;;;5076972;28;20365;-83
2022/05/18 08:55:35;;;;;;;3.67;1.42;;;563.20;1100.80;;;;;;5080144;28;20033;-82
2022/05/18 08:58:04;;;;;;;5.20;1.77;;;563.30;1049.60;;;;;;5044552;28;20033;-83
2022/05/18 09:00:34;;;;;;;3.63;1.60;;;563.30;1075.20;;;;;;5023237;28;20137;-82
2022/05/18 09:03:21;;;;;;;8.30;2.42;;;563.30;1049.60;;;;;;5026161;28;20021;-82
2022/05/18 09:05:55;;;;;;;4.43;1.55;;;563.50;1049.60;;;;;;5051689;28;20132;-83
2022/05/18 09:08:29;;;;;;;3.60;1.40;;;563.50;1024.00;;;;;;5034924;28;20040;-82
2022/05/18 09:11:05;;;;;;;8.00;1.65;;;563.20;972.80;;;;;;5034602;28;20025;-83
2022/05/18 09:13:31;;;;;;;3.05;1.20;;;563.30;947.20;;;;;;5034703;28;20029;-82
2022/05/18 09:16:08;;;;;;;6.80;1.70;;;563.40;972.80;;;;;;5034389;28;20033;-84
2022/05/18 09:22:15;;;;;;;11.02;1.50;;;563.50;972.80;;;;;;5150431;22;20048;-82
2022/05/18 09:25:03;;;;;;;5.53;1.48;;;563.60;972.80;;;;;;5001140;28;20066;-83
2022/05/18 09:28:04;;;;;;;6.13;1.38;;;563.70;972.80;;;;;;4953463;29;20487;-83
2022/05/18 09:30:57;;;;;;;6.40;1.25;;;563.80;947.20;;;;;;4946452;29;20031;-83
2022/05/18 09:33:46;;;;;;;7.40;1.60;;;563.90;921.60;;;;;;4937295;29;20168;-83
2022/05/18 09:36:31;;;;;;;4.90;1.10;;;564.00;921.60;;;;;;4936821;29;20123;-82
2022/05/18 09:38:57;;;;;;;4.57;1.38;;;564.10;870.40;;;;;;4953413;29;20415;-83
2022/05/18 09:41:30;;;;;;;5.28;1.50;;;589.00;870.40;;;;;;4953427;29;20031;-83
2022/05/18 09:43:58;;;;;;;3.60;1.48;;;589.00;896.00;;;;;;4953316;29;20023;-83
2022/05/18 09:46:27;;;;;;;3.38;1.40;;;589.00;896.00;;;;;;4937426;29;20597;-83
2022/05/18 09:48:59;;;;;;;7.70;1.67;;;589.00;870.40;;;;;;4936419;29;20042;-83
2022/05/18 09:51:26;;;;;;;10.90;2.42;;;589.10;844.80;;;;;;4936998;29;20104;-83
2022/05/18 09:53:53;;;;;;;8.07;1.83;;;589.30;870.40;;;;;;4936878;29;20131;-83
2022/05/18 09:56:30;;;;;;;12.02;4.60;;;589.30;844.80;;;;;;4937036;29;20479;-84
2022/05/18 09:59:03;;;;;;;4.10;2.05;;;589.30;844.80;;;;;;4953560;29;20032;-83
2022/05/18 10:07:32;;;;;;;9.05;1.75;;;589.50;819.20;;;;;;5013231;28;20049;-85
2022/05/18 10:10:18;;;;;;;6.20;1.80;;;589.50;844.80;;;;;;4994383;28;20018;-84
2022/05/18 10:12:46;;;;;;;7.63;1.77;;;589.70;844.80;;;;;;4988000;28;20030;-83
2022/05/18 10:15:38;;;;;;;5.88;1.60;;;614.50;844.80;;;;;;4995488;28;20046;-82
2022/05/18 10:18:45;;;;;;;12.05;1.60;;;614.40;793.60;;;;;;4995589;28;20119;-83
2022/05/18 10:21:16;;;;;;;5.53;1.10;;;614.50;793.60;;;;;;4917593;29;20043;-82
2022/05/18 10:24:23;;;;;;;4.00;1.67;;;589.70;768.00;;;;;;4917132;29;20048;-82
2022/05/18 10:27:05;;;;;;;;;;;614.50;793.60;;;;;;4914418;29;20032;-81
2022/05/18 10:29:31;;;;;;;3.10;1.35;;;614.70;768.00;;;;;;4901372;29;19919;-82
2022/05/18 10:32:31;;;;;;;6.90;1.77;;;615.10;742.40;;;;;;4901255;29;20119;-81
2022/05/18 10:34:58;;;;;;;5.50;1.50;;;614.70;742.40;;;;;;4872433;29;20040;-83
2022/05/18 10:37:36;;;;;;;7.10;1.90;;;614.80;768.00;;;;;;4870615;29;20036;-81
2022/05/18 10:40:13;;;;;;;5.30;1.92;;;614.70;742.40;;;;;;4887556;29;20041;-82
2022/05/18 10:42:44;;;;;;;8.85;2.22;;;614.90;716.80;;;;;;4891997;29;20037;-82
2022/05/18 10:45:25;;;;;;;6.10;1.60;;;614.60;716.80;;;;;;4898938;29;20134;-83
2022/05/18 10:47:53;;;;;;;5.10;1.65;;;614.70;716.80;;;;;;4899244;29;20041;-83
2022/05/18 10:50:24;;;;;;;9.38;1.60;;;614.60;742.40;;;;;;4864959;29;20090;-83
2022/05/18 10:53:19;;;;;;;3.35;1.42;;;614.70;716.80;;;;;;4879916;29;20462;-83
2022/05/18 10:55:58;;;;;;;7.30;1.70;;;614.40;742.40;;;;;;4843393;29;20050;-84
2022/05/18 10:58:26;;;;;;;3.55;1.58;;;614.70;716.80;;;;;;4843414;29;20137;-84
2022/05/18 11:01:05;;;;;;;5.70;1.50;;;614.80;742.40;;;;;;4843276;29;20121;-86
2022/05/18 11:04:15;;;;;;;4.38;1.83;;;615.00;742.40;;;;;;4852856;29;20041;-85
2022/05/18 11:06:41;;;;;;;4.10;1.10;;;614.80;742.40;;;;;;4846009;29;20128;-84
2022/05/18 11:09:32;;;;;;;4.53;1.35;;;614.90;716.80;;;;;;4877393;29;20048;-85
2022/05/18 11:12:08;;;;;;;6.13;1.80;;;614.80;742.40;;;;;;4893984;29;20532;-84
2022/05/18 11:14:43;;;;;;;3.65;1.20;;;615.20;716.80;;;;;;4901890;29;20039;-84
2022/05/18 11:17:32;;;;;;;5.57;1.27;;;615.20;691.20;;;;;;4917384;29;20028;-84
2022/05/18 11:20:25;;;;;;;4.85;1.45;;;615.30;691.20;;;;;;4901727;29;20115;-84
2022/05/18 11:23:10;;;;;;;8.10;1.95;;;615.20;691.20;;;;;;4916918;29;20056;-84
2022/05/18 11:25:54;;;;;;;6.75;1.50;;;615.30;716.80;;;;;;4901697;29;20036;-84
2022/05/18 11:28:33;;;;;;;5.90;1.58;;;640.00;742.40;;;;;;4917516;29;20059;-84
2022/05/18 11:31:27;;;;;;;3.40;1.20;;;615.30;742.40;;;;;;4901002;29;20108;-84
2022/05/18 11:34:27;;;;;;;7.07;1.40;;;615.10;742.40;;;;;;4979832;28;20119;-84
2022/05/18 11:37:08;;;;;;;2.97;1.42;;;615.20;716.80;;;;;;4936279;29;20098;-84
2022/05/18 11:39:42;;;;;;;4.43;1.25;;;615.30;742.40;;;;;;4938095;29;20147;-84
2022/05/18 11:42:21;;;;;;;2.90;1.33;;;615.30;716.80;;;;;;4955146;29;20178;-84
2022/05/18 11:44:53;;;;;;;6.00;1.50;;;615.20;716.80;;;;;;4939189;29;20027;-84
2022/05/18 11:47:37;;;;;;;5.32;1.50;;;640.10;742.40;;;;;;4955464;29;20039;-85
2022/05/18 11:50:30;;;;;;;3.33;1.30;;;640.00;742.40;;;;;;4954958;28;20031;-83
2022/05/18 11:53:06;;;;;;;2.40;1.25;;;640.20;742.40;;;;;;4954590;28;20156;-84
2022/05/18 11:56:06;;;;;;;4.55;1.52;;;640.00;716.80;;;;;;4955122;28;20124;-85
2022/05/18 11:58:46;;;;;;;4.57;1.70;;;640.20;716.80;;;;;;4955172;28;20023;-84
2022/05/18 12:01:26;;;;;;;2.50;1.25;;;640.20;716.80;;;;;;4954729;28;20122;-83
2022/05/18 12:04:00;;;;;;;4.65;1.40;;;640.20;716.80;;;;;;4938783;29;20570;-84
2022/05/18 12:06:36;;;;;;;4.43;1.70;;;640.20;742.40;;;;;;4954566;29;20126;-84
2022/05/18 12:09:13;;;;;;;;;;;640.50;716.80;;;;;;4955382;29;20027;-84
2022/05/18 12:11:46;;;;;;;4.57;1.50;;;640.60;716.80;;;;;;4954583;29;19907;-85
2022/05/18 12:14:19;;;;;;;5.45;1.33;;;640.30;742.40;;;;;;4989322;28;20108;-84
2022/05/18 12:16:51;;;;;;;5.93;1.48;;;640.20;716.80;;;;;;5014007;28;20022;-81
2022/05/18 12:19:25;;;;;;;2.25;1.17;;;640.40;716.80;;;;;;4996632;28;20112;-80
2022/05/18 12:22:13;;;;;;;3.25;1.10;;;640.60;691.20;;;;;;4995918;28;20042;-82
2022/05/18 12:24:43;;;;;;;5.55;1.40;;;640.50;691.20;;;;;;4996871;28;20034;-89
2022/05/18 12:27:10;;;;;;;8.93;1.42;;;640.50;716.80;;;;;;4997190;28;20470;-84
2022/05/18 12:29:37;;;;;;;9.52;1.33;;;640.60;716.80;;;;;;4997054;28;20030;-85
2022/05/18 12:32:04;;;;;;;1.95;1.15;;;640.50;691.20;;;;;;4996927;28;20022;-82
2022/05/18 12:34:35;;;;;;;2.30;1.13;;;640.50;716.80;;;;;;5013354;28;20038;-85
2022/05/18 12:37:13;;;;;;;5.85;1.30;;;640.40;716.80;;;;;;4996619;28;20065;-86
2022/05/18 12:39:48;;;;;;;1.85;1.13;;;640.50;691.20;;;;;;5006575;28;20029;-85
2022/05/18 12:42:23;;;;;;;3.05;1.42;;;640.50;665.60;;;;;;4996639;28;20036;-83
2022/05/18 12:45:09;;;;;;;11.43;1.93;;;640.70;691.20;;;;;;4996827;28;20498;-87
2022/05/18 12:47:47;;;;;;;4.15;1.20;;;665.60;716.80;;;;;;4996918;28;20029;-84
2022/05/18 12:50:16;;;;;;;3.88;1.27;;;640.60;665.60;;;;;;4996477;28;20501;-84
2022/05/18 12:53:03;;;;;;;5.53;1.25;;;640.60;640.00;;;;;;4995789;28;20070;-83